sensor_id;sensor_type;location;lat;lon;timestamp;pressure;altitude;pressure_sealevel;temperature;humidity
74790;BME280;63318;52.406;13.416;2023-08-08T00:00:55;100605.10;;;13.87;68.49
74790;BME280;63318;52.406;13.416;2023-08-08T00:03:24;100605.13;;;13.85;68.52
74790;BME280;63318;52.406;13.416;2023-08-08T00:05:52;100603.43;;;13.83;68.70
74790;BME280;63318;52.406;13.416;2023-08-08T00:08:20;100606.43;;;13.80;68.83
74790;BME280;63318;52.406;13.416;2023-08-08T00:10:48;100602.73;;;13.77;68.77
74790;BME280;63318;52.406;13.416;2023-08-08T00:13:16;100601.70;;;13.74;69.13
74790;BME280;63318;52.406;13.416;2023-08-08T00:15:45;100600.95;;;13.71;69.03
74790;BME280;63318;52.406;13.416;2023-08-08T00:18:13;100597.36;;;13.69;68.98
74790;BME280;63318;52.406;13.416;2023-08-08T00:20:41;100600.35;;;13.66;68.97
74790;BME280;63318;52.406;13.416;2023-08-08T00:23:09;100597.77;;;13.62;68.92
74790;BME280;63318;52.406;13.416;2023-08-08T00:25:38;100590.38;;;13.60;69.09
74790;BME280;63318;52.406;13.416;2023-08-08T00:28:06;100597.99;;;13.59;69.21
74790;BME280;63318;52.406;13.416;2023-08-08T00:30:35;100598.30;;;13.56;69.09
74790;BME280;63318;52.406;13.416;2023-08-08T00:33:03;100597.27;;;13.54;69.18
74790;BME280;63318;52.406;13.416;2023-08-08T00:35:32;100604.11;;;13.51;69.27
74790;BME280;63318;52.406;13.416;2023-08-08T00:38:00;100601.13;;;13.48;69.28
74790;BME280;63318;52.406;13.416;2023-08-08T00:40:28;100609.09;;;13.46;69.38
74790;BME280;63318;52.406;13.416;2023-08-08T00:42:56;100608.89;;;13.43;69.32
74790;BME280;63318;52.406;13.416;2023-08-08T00:45:25;100613.33;;;13.40;69.35
74790;BME280;63318;52.406;13.416;2023-08-08T00:47:53;100612.90;;;13.38;69.37
74790;BME280;63318;52.406;13.416;2023-08-08T00:50:22;100614.67;;;13.35;69.35
74790;BME280;63318;52.406;13.416;2023-08-08T00:52:51;100610.58;;;13.32;69.39
74790;BME280;63318;52.406;13.416;2023-08-08T00:55:19;100614.90;;;13.30;69.46
74790;BME280;63318;52.406;13.416;2023-08-08T00:57:48;100623.23;;;13.28;69.54
74790;BME280;63318;52.406;13.416;2023-08-08T01:00:16;100623.20;;;13.25;69.59
74790;BME280;63318;52.406;13.416;2023-08-08T01:02:44;100621.11;;;13.22;69.59
74790;BME280;63318;52.406;13.416;2023-08-08T01:05:13;100620.11;;;13.17;69.62
74790;BME280;63318;52.406;13.416;2023-08-08T01:07:46;100620.63;;;13.15;69.68
74790;BME280;63318;52.406;13.416;2023-08-08T01:10:17;100623.23;;;13.12;69.73
74790;BME280;63318;52.406;13.416;2023-08-08T01:12:52;100619.11;;;13.09;69.76
74790;BME280;63318;52.406;13.416;2023-08-08T01:15:21;100622.16;;;13.06;69.96
74790;BME280;63318;52.406;13.416;2023-08-08T01:17:50;100628.73;;;13.03;69.88
74790;BME280;63318;52.406;13.416;2023-08-08T01:20:19;100623.52;;;13.01;69.92
74790;BME280;63318;52.406;13.416;2023-08-08T01:22:55;100625.89;;;12.98;69.91
74790;BME280;63318;52.406;13.416;2023-08-08T01:25:24;100627.20;;;12.95;70.02
74790;BME280;63318;52.406;13.416;2023-08-08T01:27:52;100627.23;;;12.92;69.98
74790;BME280;63318;52.406;13.416;2023-08-08T01:30:20;100622.89;;;12.90;70.12
74790;BME280;63318;52.406;13.416;2023-08-08T01:32:49;100620.53;;;12.88;70.11
74790;BME280;63318;52.406;13.416;2023-08-08T01:35:17;100616.98;;;12.85;70.14
74790;BME280;63318;52.406;13.416;2023-08-08T01:37:50;100614.89;;;12.82;70.18
74790;BME280;63318;52.406;13.416;2023-08-08T01:40:19;100614.18;;;12.80;70.24
74790;BME280;63318;52.406;13.416;2023-08-08T01:42:49;100615.20;;;12.78;70.32
74790;BME280;63318;52.406;13.416;2023-08-08T01:45:18;100613.95;;;12.75;70.33
74790;BME280;63318;52.406;13.416;2023-08-08T01:47:51;100613.63;;;12.72;70.20
74790;BME280;63318;52.406;13.416;2023-08-08T01:50:20;100609.70;;;12.70;70.22
74790;BME280;63318;52.406;13.416;2023-08-08T01:52:48;100607.20;;;12.68;70.33
74790;BME280;63318;52.406;13.416;2023-08-08T01:55:16;100606.77;;;12.67;70.23
74790;BME280;63318;52.406;13.416;2023-08-08T01:57:44;100603.33;;;12.64;70.23
74790;BME280;63318;52.406;13.416;2023-08-08T02:00:13;100601.02;;;12.63;70.20
74790;BME280;63318;52.406;13.416;2023-08-08T02:02:41;100596.49;;;12.61;70.24
74790;BME280;63318;52.406;13.416;2023-08-08T02:05:10;100593.63;;;12.59;70.29
74790;BME280;63318;52.406;13.416;2023-08-08T02:07:38;100591.63;;;12.57;70.18
74790;BME280;63318;52.406;13.416;2023-08-08T02:10:07;100594.32;;;12.56;70.27
74790;BME280;63318;52.406;13.416;2023-08-08T02:12:36;100592.53;;;12.55;70.24
74790;BME280;63318;52.406;13.416;2023-08-08T02:15:05;100589.08;;;12.55;70.19
74790;BME280;63318;52.406;13.416;2023-08-08T02:17:34;100583.73;;;12.54;70.12
74790;BME280;63318;52.406;13.416;2023-08-08T02:20:02;100579.30;;;12.52;70.21
74790;BME280;63318;52.406;13.416;2023-08-08T02:22:30;100580.92;;;12.51;70.30
74790;BME280;63318;52.406;13.416;2023-08-08T02:24:58;100579.92;;;12.49;70.32
74790;BME280;63318;52.406;13.416;2023-08-08T02:27:27;100576.40;;;12.46;70.32
74790;BME280;63318;52.406;13.416;2023-08-08T02:29:55;100576.79;;;12.44;70.20
74790;BME280;63318;52.406;13.416;2023-08-08T02:32:23;100580.04;;;12.43;70.36
74790;BME280;63318;52.406;13.416;2023-08-08T02:34:51;100575.71;;;12.41;70.38
74790;BME280;63318;52.406;13.416;2023-08-08T02:37:19;100580.95;;;12.40;70.37
74790;BME280;63318;52.406;13.416;2023-08-08T02:39:48;100579.80;;;12.38;70.52
74790;BME280;63318;52.406;13.416;2023-08-08T02:42:16;100575.13;;;12.37;70.68
74790;BME280;63318;52.406;13.416;2023-08-08T02:44:44;100571.46;;;12.34;70.58
74790;BME280;63318;52.406;13.416;2023-08-08T02:47:12;100573.48;;;12.34;70.74
74790;BME280;63318;52.406;13.416;2023-08-08T02:49:40;100570.53;;;12.33;70.86
74790;BME280;63318;52.406;13.416;2023-08-08T02:52:09;100574.66;;;12.31;70.92
74790;BME280;63318;52.406;13.416;2023-08-08T02:54:37;100569.34;;;12.30;70.92
74790;BME280;63318;52.406;13.416;2023-08-08T02:57:06;100570.63;;;12.29;70.99
74790;BME280;63318;52.406;13.416;2023-08-08T02:59:34;100572.51;;;12.29;71.07
74790;BME280;63318;52.406;13.416;2023-08-08T03:02:02;100580.71;;;12.28;71.04
74790;BME280;63318;52.406;13.416;2023-08-08T03:04:31;100582.33;;;12.27;71.26
74790;BME280;63318;52.406;13.416;2023-08-08T03:06:59;100583.00;;;12.27;71.32
74790;BME280;63318;52.406;13.416;2023-08-08T03:09:27;100583.67;;;12.26;71.24
74790;BME280;63318;52.406;13.416;2023-08-08T03:11:56;100581.13;;;12.25;71.39
74790;BME280;63318;52.406;13.416;2023-08-08T03:14:24;100581.84;;;12.24;71.40
74790;BME280;63318;52.406;13.416;2023-08-08T03:16:52;100576.89;;;12.24;71.68
74790;BME280;63318;52.406;13.416;2023-08-08T03:19:20;100580.08;;;12.23;71.87
74790;BME280;63318;52.406;13.416;2023-08-08T03:21:49;100579.69;;;12.24;71.72
74790;BME280;63318;52.406;13.416;2023-08-08T03:24:17;100580.40;;;12.24;71.79
74790;BME280;63318;52.406;13.416;2023-08-08T03:26:45;100577.69;;;12.24;71.92
74790;BME280;63318;52.406;13.416;2023-08-08T03:29:13;100577.63;;;12.23;72.03
74790;BME280;63318;52.406;13.416;2023-08-08T03:31:41;100574.61;;;12.23;71.87
74790;BME280;63318;52.406;13.416;2023-08-08T03:34:10;100578.80;;;12.22;71.94
74790;BME280;63318;52.406;13.416;2023-08-08T03:36:39;100580.88;;;12.21;72.07
74790;BME280;63318;52.406;13.416;2023-08-08T03:39:07;100576.30;;;12.20;72.06
74790;BME280;63318;52.406;13.416;2023-08-08T03:41:35;100587.00;;;12.20;72.06
74790;BME280;63318;52.406;13.416;2023-08-08T03:44:03;100575.92;;;12.20;72.22
74790;BME280;63318;52.406;13.416;2023-08-08T03:46:32;100579.48;;;12.20;72.25
74790;BME280;63318;52.406;13.416;2023-08-08T03:49:00;100580.95;;;12.19;72.42
74790;BME280;63318;52.406;13.416;2023-08-08T03:51:28;100583.11;;;12.18;72.47
74790;BME280;63318;52.406;13.416;2023-08-08T03:53:56;100588.91;;;12.18;72.50
74790;BME280;63318;52.406;13.416;2023-08-08T03:56:25;100588.19;;;12.18;72.61
74790;BME280;63318;52.406;13.416;2023-08-08T03:58:53;100591.48;;;12.17;72.81
74790;BME280;63318;52.406;13.416;2023-08-08T04:01:21;100597.00;;;12.17;72.83
74790;BME280;63318;52.406;13.416;2023-08-08T04:03:49;100598.11;;;12.19;72.88
74790;BME280;63318;52.406;13.416;2023-08-08T04:06:17;100592.91;;;12.21;72.79
74790;BME280;63318;52.406;13.416;2023-08-08T04:08:46;100593.34;;;12.22;73.01
74790;BME280;63318;52.406;13.416;2023-08-08T04:11:14;100586.64;;;12.24;73.02
74790;BME280;63318;52.406;13.416;2023-08-08T04:13:42;100588.52;;;12.26;73.08
74790;BME280;63318;52.406;13.416;2023-08-08T04:16:10;100583.61;;;12.28;73.06
74790;BME280;63318;52.406;13.416;2023-08-08T04:18:39;100582.75;;;12.31;73.35
74790;BME280;63318;52.406;13.416;2023-08-08T04:21:07;100581.39;;;12.34;73.21
74790;BME280;63318;52.406;13.416;2023-08-08T04:23:35;100585.26;;;12.38;73.18
74790;BME280;63318;52.406;13.416;2023-08-08T04:26:03;100585.80;;;12.41;73.44
74790;BME280;63318;52.406;13.416;2023-08-08T04:28:32;100582.98;;;12.44;73.44
74790;BME280;63318;52.406;13.416;2023-08-08T04:31:00;100581.35;;;12.48;73.26
74790;BME280;63318;52.406;13.416;2023-08-08T04:33:28;100582.75;;;12.52;73.38
74790;BME280;63318;52.406;13.416;2023-08-08T04:35:56;100581.05;;;12.55;73.52
74790;BME280;63318;52.406;13.416;2023-08-08T04:38:25;100584.65;;;12.59;73.51
74790;BME280;63318;52.406;13.416;2023-08-08T04:40:53;100584.45;;;12.62;73.38
74790;BME280;63318;52.406;13.416;2023-08-08T04:43:21;100584.15;;;12.64;73.56
74790;BME280;63318;52.406;13.416;2023-08-08T04:45:50;100581.29;;;12.67;73.38
74790;BME280;63318;52.406;13.416;2023-08-08T04:48:18;100580.45;;;12.68;73.39
74790;BME280;63318;52.406;13.416;2023-08-08T04:50:49;100574.58;;;12.70;73.36
74790;BME280;63318;52.406;13.416;2023-08-08T04:53:17;100575.73;;;12.71;73.37
74790;BME280;63318;52.406;13.416;2023-08-08T04:55:45;100577.83;;;12.74;73.42
74790;BME280;63318;52.406;13.416;2023-08-08T04:58:13;100578.88;;;12.75;73.39
74790;BME280;63318;52.406;13.416;2023-08-08T05:00:41;100584.88;;;12.78;73.32
74790;BME280;63318;52.406;13.416;2023-08-08T05:03:10;100579.61;;;12.81;73.42
74790;BME280;63318;52.406;13.416;2023-08-08T05:05:38;100575.39;;;12.84;73.43
74790;BME280;63318;52.406;13.416;2023-08-08T05:08:06;100576.02;;;12.89;73.53
74790;BME280;63318;52.406;13.416;2023-08-08T05:10:35;100575.36;;;12.94;73.62
74790;BME280;63318;52.406;13.416;2023-08-08T05:13:03;100576.80;;;13.00;73.41
74790;BME280;63318;52.406;13.416;2023-08-08T05:15:32;100578.26;;;13.07;73.25
74790;BME280;63318;52.406;13.416;2023-08-08T05:18:00;100580.64;;;13.14;73.21
74790;BME280;63318;52.406;13.416;2023-08-08T05:20:28;100574.96;;;13.19;73.17
74790;BME280;63318;52.406;13.416;2023-08-08T05:22:56;100579.70;;;13.24;73.44
74790;BME280;63318;52.406;13.416;2023-08-08T05:25:24;100578.41;;;13.29;73.35
74790;BME280;63318;52.406;13.416;2023-08-08T05:27:52;100577.74;;;13.34;73.13
74790;BME280;63318;52.406;13.416;2023-08-08T05:30:21;100579.08;;;13.39;73.22
74790;BME280;63318;52.406;13.416;2023-08-08T05:32:49;100578.63;;;13.44;73.12
74790;BME280;63318;52.406;13.416;2023-08-08T05:35:17;100579.83;;;13.50;73.04
74790;BME280;63318;52.406;13.416;2023-08-08T05:37:46;100574.49;;;13.58;73.10
74790;BME280;63318;52.406;13.416;2023-08-08T05:40:14;100579.74;;;13.67;73.04
74790;BME280;63318;52.406;13.416;2023-08-08T05:42:42;100575.24;;;13.77;72.96
74790;BME280;63318;52.406;13.416;2023-08-08T05:45:11;100574.44;;;13.88;72.88
74790;BME280;63318;52.406;13.416;2023-08-08T05:47:39;100571.49;;;13.98;72.67
74790;BME280;63318;52.406;13.416;2023-08-08T05:50:09;100578.40;;;14.08;72.50
74790;BME280;63318;52.406;13.416;2023-08-08T05:52:37;100576.85;;;14.14;72.48
74790;BME280;63318;52.406;13.416;2023-08-08T05:55:07;100579.89;;;14.20;72.37
74790;BME280;63318;52.406;13.416;2023-08-08T05:57:35;100579.00;;;14.24;72.17
74790;BME280;63318;52.406;13.416;2023-08-08T06:00:04;100577.31;;;14.29;72.29
74790;BME280;63318;52.406;13.416;2023-08-08T06:02:32;100577.82;;;14.37;72.34
74790;BME280;63318;52.406;13.416;2023-08-08T06:05:00;100579.84;;;14.43;72.30
74790;BME280;63318;52.406;13.416;2023-08-08T06:07:28;100576.58;;;14.51;72.22
74790;BME280;63318;52.406;13.416;2023-08-08T06:09:57;100579.20;;;14.58;72.00
74790;BME280;63318;52.406;13.416;2023-08-08T06:12:25;100574.15;;;14.63;72.08
74790;BME280;63318;52.406;13.416;2023-08-08T06:14:53;100575.47;;;14.68;71.86
74790;BME280;63318;52.406;13.416;2023-08-08T06:17:21;100582.43;;;14.69;71.81
74790;BME280;63318;52.406;13.416;2023-08-08T06:19:49;100576.89;;;14.70;71.72
74790;BME280;63318;52.406;13.416;2023-08-08T06:22:17;100580.05;;;14.71;71.81
74790;BME280;63318;52.406;13.416;2023-08-08T06:24:46;100579.61;;;14.71;71.58
74790;BME280;63318;52.406;13.416;2023-08-08T06:27:14;100584.30;;;14.71;71.72
74790;BME280;63318;52.406;13.416;2023-08-08T06:29:42;100582.23;;;14.72;71.74
74790;BME280;63318;52.406;13.416;2023-08-08T06:32:10;100586.92;;;14.75;71.67
74790;BME280;63318;52.406;13.416;2023-08-08T06:34:39;100584.92;;;14.77;71.62
74790;BME280;63318;52.406;13.416;2023-08-08T06:37:07;100583.84;;;14.78;71.35
74790;BME280;63318;52.406;13.416;2023-08-08T06:39:35;100583.66;;;14.80;71.62
74790;BME280;63318;52.406;13.416;2023-08-08T06:42:04;100581.70;;;14.82;71.42
74790;BME280;63318;52.406;13.416;2023-08-08T06:44:40;100582.74;;;14.87;71.34
74790;BME280;63318;52.406;13.416;2023-08-08T06:47:08;100588.05;;;14.93;71.18
74790;BME280;63318;52.406;13.416;2023-08-08T06:49:37;100588.84;;;14.99;71.11
74790;BME280;63318;52.406;13.416;2023-08-08T06:52:06;100584.92;;;15.08;71.18
74790;BME280;63318;52.406;13.416;2023-08-08T06:54:34;100585.08;;;15.15;70.71
74790;BME280;63318;52.406;13.416;2023-08-08T06:57:03;100584.50;;;15.19;70.83
74790;BME280;63318;52.406;13.416;2023-08-08T06:59:31;100585.95;;;15.21;70.58
74790;BME280;63318;52.406;13.416;2023-08-08T07:01:59;100582.80;;;15.23;70.23
74790;BME280;63318;52.406;13.416;2023-08-08T07:04:27;100589.38;;;15.24;70.19
74790;BME280;63318;52.406;13.416;2023-08-08T07:06:55;100586.62;;;15.28;70.47
74790;BME280;63318;52.406;13.416;2023-08-08T07:09:24;100588.61;;;15.38;70.57
74790;BME280;63318;52.406;13.416;2023-08-08T07:11:52;100588.38;;;15.51;70.45
74790;BME280;63318;52.406;13.416;2023-08-08T07:14:20;100589.79;;;15.75;69.88
74790;BME280;63318;52.406;13.416;2023-08-08T07:16:48;100584.19;;;15.90;69.88
74790;BME280;63318;52.406;13.416;2023-08-08T07:19:17;100591.50;;;16.09;70.08
74790;BME280;63318;52.406;13.416;2023-08-08T07:21:45;100586.48;;;16.37;69.66
74790;BME280;63318;52.406;13.416;2023-08-08T07:24:13;100583.44;;;16.65;69.60
74790;BME280;63318;52.406;13.416;2023-08-08T07:26:41;100582.84;;;16.90;68.83
74790;BME280;63318;52.406;13.416;2023-08-08T07:29:09;100583.00;;;17.09;68.36
74790;BME280;63318;52.406;13.416;2023-08-08T07:31:38;100589.33;;;17.18;68.03
74790;BME280;63318;52.406;13.416;2023-08-08T07:34:06;100591.27;;;17.21;67.96
74790;BME280;63318;52.406;13.416;2023-08-08T07:36:34;100581.61;;;17.25;67.38
74790;BME280;63318;52.406;13.416;2023-08-08T07:39:02;100587.74;;;17.30;67.49
74790;BME280;63318;52.406;13.416;2023-08-08T07:41:31;100587.67;;;17.31;67.55
74790;BME280;63318;52.406;13.416;2023-08-08T07:43:59;100586.23;;;17.32;67.65
74790;BME280;63318;52.406;13.416;2023-08-08T07:46:27;100584.98;;;17.33;67.56
74790;BME280;63318;52.406;13.416;2023-08-08T07:48:56;100585.06;;;17.34;67.42
74790;BME280;63318;52.406;13.416;2023-08-08T07:51:24;100583.11;;;17.35;67.39
74790;BME280;63318;52.406;13.416;2023-08-08T07:53:53;100585.24;;;17.33;66.97
74790;BME280;63318;52.406;13.416;2023-08-08T07:56:21;100582.61;;;17.27;67.00
74790;BME280;63318;52.406;13.416;2023-08-08T07:58:49;100580.04;;;17.25;67.05
74790;BME280;63318;52.406;13.416;2023-08-08T08:01:17;100580.07;;;17.36;67.19
74790;BME280;63318;52.406;13.416;2023-08-08T08:03:46;100584.25;;;17.47;67.15
74790;BME280;63318;52.406;13.416;2023-08-08T08:06:14;100579.73;;;17.59;67.27
74790;BME280;63318;52.406;13.416;2023-08-08T08:08:42;100583.42;;;17.71;66.71
74790;BME280;63318;52.406;13.416;2023-08-08T08:11:11;100582.20;;;17.84;66.69
74790;BME280;63318;52.406;13.416;2023-08-08T08:13:39;100581.02;;;17.98;66.19
74790;BME280;63318;52.406;13.416;2023-08-08T08:16:07;100575.90;;;18.04;65.93
74790;BME280;63318;52.406;13.416;2023-08-08T08:18:35;100577.39;;;18.12;66.34
74790;BME280;63318;52.406;13.416;2023-08-08T08:21:04;100579.43;;;18.23;66.05
74790;BME280;63318;52.406;13.416;2023-08-08T08:23:32;100578.27;;;18.29;65.52
74790;BME280;63318;52.406;13.416;2023-08-08T08:26:00;100573.86;;;18.37;65.67
74790;BME280;63318;52.406;13.416;2023-08-08T08:28:28;100573.31;;;18.50;65.15
74790;BME280;63318;52.406;13.416;2023-08-08T08:30:56;100574.84;;;18.55;64.50
74790;BME280;63318;52.406;13.416;2023-08-08T08:33:25;100575.08;;;18.62;64.52
74790;BME280;63318;52.406;13.416;2023-08-08T08:35:53;100569.48;;;18.66;64.66
74790;BME280;63318;52.406;13.416;2023-08-08T08:38:21;100565.80;;;18.70;64.20
74790;BME280;63318;52.406;13.416;2023-08-08T08:40:50;100570.32;;;18.85;64.05
74790;BME280;63318;52.406;13.416;2023-08-08T08:43:21;100567.61;;;18.91;63.61
74790;BME280;63318;52.406;13.416;2023-08-08T08:45:51;100568.08;;;18.86;63.45
74790;BME280;63318;52.406;13.416;2023-08-08T08:48:22;100563.54;;;18.79;63.23
74790;BME280;63318;52.406;13.416;2023-08-08T08:50:50;100563.57;;;18.72;63.36
74790;BME280;63318;52.406;13.416;2023-08-08T08:53:18;100563.35;;;18.71;63.27
74790;BME280;63318;52.406;13.416;2023-08-08T08:55:47;100559.88;;;18.69;63.37
74790;BME280;63318;52.406;13.416;2023-08-08T08:58:17;100566.69;;;18.67;63.48
74790;BME280;63318;52.406;13.416;2023-08-08T09:00:46;100562.52;;;18.65;63.46
74790;BME280;63318;52.406;13.416;2023-08-08T09:03:14;100564.95;;;18.62;63.37
74790;BME280;63318;52.406;13.416;2023-08-08T09:05:43;100563.00;;;18.60;63.60
74790;BME280;63318;52.406;13.416;2023-08-08T09:08:12;100561.30;;;18.65;63.60
74790;BME280;63318;52.406;13.416;2023-08-08T09:10:40;100567.02;;;18.72;63.53
74790;BME280;63318;52.406;13.416;2023-08-08T09:13:09;100560.92;;;18.78;63.44
74790;BME280;63318;52.406;13.416;2023-08-08T09:15:37;100562.83;;;18.88;62.52
74790;BME280;63318;52.406;13.416;2023-08-08T09:18:06;100561.52;;;19.07;63.46
74790;BME280;63318;52.406;13.416;2023-08-08T09:20:35;100557.73;;;19.27;62.33
74790;BME280;63318;52.406;13.416;2023-08-08T09:23:03;100555.05;;;19.39;61.84
74790;BME280;63318;52.406;13.416;2023-08-08T09:25:31;100552.83;;;19.61;62.11
74790;BME280;63318;52.406;13.416;2023-08-08T09:28:00;100546.79;;;19.82;61.55
74790;BME280;63318;52.406;13.416;2023-08-08T09:30:28;100548.61;;;19.93;61.22
74790;BME280;63318;52.406;13.416;2023-08-08T09:32:59;100545.54;;;20.01;60.45
74790;BME280;63318;52.406;13.416;2023-08-08T09:35:28;100540.55;;;20.03;60.10
74790;BME280;63318;52.406;13.416;2023-08-08T09:37:56;100538.06;;;20.03;59.65
74790;BME280;63318;52.406;13.416;2023-08-08T09:40:25;100533.91;;;20.15;59.82
74790;BME280;63318;52.406;13.416;2023-08-08T09:42:53;100534.52;;;20.31;59.90
74790;BME280;63318;52.406;13.416;2023-08-08T09:45:22;100533.38;;;20.56;59.56
74790;BME280;63318;52.406;13.416;2023-08-08T09:47:51;100522.02;;;20.85;59.31
74790;BME280;63318;52.406;13.416;2023-08-08T09:50:19;100524.92;;;21.04;59.25
74790;BME280;63318;52.406;13.416;2023-08-08T09:52:48;100521.04;;;21.14;58.36
74790;BME280;63318;52.406;13.416;2023-08-08T09:55:17;100516.56;;;21.27;57.55
74790;BME280;63318;52.406;13.416;2023-08-08T09:57:47;100519.73;;;21.33;57.58
74790;BME280;63318;52.406;13.416;2023-08-08T10:00:17;100515.17;;;21.31;56.82
74790;BME280;63318;52.406;13.416;2023-08-08T10:02:46;100509.16;;;21.23;56.64
74790;BME280;63318;52.406;13.416;2023-08-08T10:05:15;100520.48;;;21.09;56.96
74790;BME280;63318;52.406;13.416;2023-08-08T10:07:43;100518.60;;;20.92;56.85
74790;BME280;63318;52.406;13.416;2023-08-08T10:10:12;100523.45;;;20.73;56.73
74790;BME280;63318;52.406;13.416;2023-08-08T10:12:41;100522.77;;;20.48;58.02
74790;BME280;63318;52.406;13.416;2023-08-08T10:15:11;100520.64;;;20.28;58.91
74790;BME280;63318;52.406;13.416;2023-08-08T10:17:40;100516.34;;;20.17;59.11
74790;BME280;63318;52.406;13.416;2023-08-08T10:20:10;100512.66;;;20.13;59.89
74790;BME280;63318;52.406;13.416;2023-08-08T10:22:41;100511.86;;;20.21;60.72
74790;BME280;63318;52.406;13.416;2023-08-08T10:25:17;100509.00;;;20.38;60.47
74790;BME280;63318;52.406;13.416;2023-08-08T10:27:45;100502.85;;;20.46;60.00
74790;BME280;63318;52.406;13.416;2023-08-08T10:30:14;100492.20;;;20.57;59.28
74790;BME280;63318;52.406;13.416;2023-08-08T10:32:44;100491.27;;;20.71;59.28
74790;BME280;63318;52.406;13.416;2023-08-08T10:35:13;100496.65;;;20.90;58.93
74790;BME280;63318;52.406;13.416;2023-08-08T10:37:53;100512.75;;;20.92;58.41
74790;BME280;63318;52.406;13.416;2023-08-08T10:40:21;100529.41;;;20.75;58.99
74790;BME280;63318;52.406;13.416;2023-08-08T10:42:51;100531.53;;;20.46;59.45
74790;BME280;63318;52.406;13.416;2023-08-08T10:45:19;100530.89;;;20.15;60.10
74790;BME280;63318;52.406;13.416;2023-08-08T10:47:48;100526.86;;;19.83;60.71
74790;BME280;63318;52.406;13.416;2023-08-08T10:50:22;100528.52;;;19.49;61.44
74790;BME280;63318;52.406;13.416;2023-08-08T10:52:55;100515.45;;;19.21;61.96
74790;BME280;63318;52.406;13.416;2023-08-08T10:55:25;100516.56;;;19.02;62.62
74790;BME280;63318;52.406;13.416;2023-08-08T10:58:04;100521.95;;;18.89;63.66
74790;BME280;63318;52.406;13.416;2023-08-08T11:00:35;100515.69;;;18.79;63.77
74790;BME280;63318;52.406;13.416;2023-08-08T11:03:04;100510.52;;;18.69;64.31
74790;BME280;63318;52.406;13.416;2023-08-08T11:05:34;100506.98;;;18.66;65.03
74790;BME280;63318;52.406;13.416;2023-08-08T11:08:05;100506.66;;;18.81;65.84
74790;BME280;63318;52.406;13.416;2023-08-08T11:10:37;100509.41;;;19.00;66.09
74790;BME280;63318;52.406;13.416;2023-08-08T11:13:06;100506.52;;;19.19;66.56
74790;BME280;63318;52.406;13.416;2023-08-08T11:15:35;100509.73;;;19.26;65.88
74790;BME280;63318;52.406;13.416;2023-08-08T11:18:04;100508.09;;;19.24;65.53
74790;BME280;63318;52.406;13.416;2023-08-08T11:20:33;100508.85;;;19.15;65.26
74790;BME280;63318;52.406;13.416;2023-08-08T11:23:03;100505.23;;;19.06;65.50
74790;BME280;63318;52.406;13.416;2023-08-08T11:25:31;100501.48;;;19.01;65.82
74790;BME280;63318;52.406;13.416;2023-08-08T11:28:00;100505.86;;;19.11;66.23
74790;BME280;63318;52.406;13.416;2023-08-08T11:30:31;100510.80;;;19.27;66.77
74790;BME280;63318;52.406;13.416;2023-08-08T11:33:01;100510.59;;;19.36;66.13
74790;BME280;63318;52.406;13.416;2023-08-08T11:35:29;100535.23;;;19.35;65.79
74790;BME280;63318;52.406;13.416;2023-08-08T11:37:58;100550.23;;;19.25;65.61
74790;BME280;63318;52.406;13.416;2023-08-08T11:40:29;100554.08;;;19.03;65.90
74790;BME280;63318;52.406;13.416;2023-08-08T11:42:58;100553.94;;;18.75;65.54
74790;BME280;63318;52.406;13.416;2023-08-08T11:45:27;100550.41;;;18.47;65.56
74790;BME280;63318;52.406;13.416;2023-08-08T11:47:56;100539.69;;;18.23;65.78
74790;BME280;63318;52.406;13.416;2023-08-08T11:50:25;100532.63;;;18.03;66.26
74790;BME280;63318;52.406;13.416;2023-08-08T11:52:54;100525.58;;;17.95;66.87
74790;BME280;63318;52.406;13.416;2023-08-08T11:55:28;100523.23;;;17.96;67.55
74790;BME280;63318;52.406;13.416;2023-08-08T11:57:58;100521.33;;;18.03;68.35
74790;BME280;63318;52.406;13.416;2023-08-08T12:00:28;100516.27;;;18.17;68.41
74790;BME280;63318;52.406;13.416;2023-08-08T12:02:58;100511.84;;;18.30;68.11
74790;BME280;63318;52.406;13.416;2023-08-08T12:05:26;100507.49;;;18.41;67.97
74790;BME280;63318;52.406;13.416;2023-08-08T12:07:54;100506.68;;;18.57;68.34
74790;BME280;63318;52.406;13.416;2023-08-08T12:10:23;100505.20;;;18.76;68.25
74790;BME280;63318;52.406;13.416;2023-08-08T12:12:55;100496.88;;;18.90;67.68
74790;BME280;63318;52.406;13.416;2023-08-08T12:15:27;100494.06;;;19.01;67.92
74790;BME280;63318;52.406;13.416;2023-08-08T12:17:57;100490.89;;;19.15;67.69
74790;BME280;63318;52.406;13.416;2023-08-08T12:20:28;100491.41;;;19.27;67.06
74790;BME280;63318;52.406;13.416;2023-08-08T12:22:56;100496.16;;;19.38;66.38
74790;BME280;63318;52.406;13.416;2023-08-08T12:25:24;100496.84;;;19.49;66.56
74790;BME280;63318;52.406;13.416;2023-08-08T12:27:53;100498.13;;;19.62;66.60
74790;BME280;63318;52.406;13.416;2023-08-08T12:30:21;100500.02;;;19.72;66.18
74790;BME280;63318;52.406;13.416;2023-08-08T12:32:49;100503.77;;;19.73;65.78
74790;BME280;63318;52.406;13.416;2023-08-08T12:35:17;100516.21;;;19.71;65.79
74790;BME280;63318;52.406;13.416;2023-08-08T12:37:45;100510.89;;;19.65;65.75
74790;BME280;63318;52.406;13.416;2023-08-08T12:40:14;100510.60;;;19.54;65.18
74790;BME280;63318;52.406;13.416;2023-08-08T12:42:42;100503.46;;;19.42;64.99
74790;BME280;63318;52.406;13.416;2023-08-08T12:45:10;100499.21;;;19.39;64.86
74790;BME280;63318;52.406;13.416;2023-08-08T12:47:38;100496.52;;;19.52;65.12